Chiniak, Alaska
Current Conditions -  °F | °C
As of 8:56 AM on Saturday 22 Nov 2014 (Local Time) from PAKH Reporting Station
Light Rain Light Rain  
Wind Chill: 32°   Ceiling: 2400
Heat Index: 39°   Visibility: 9mi
Dew Point: 35°   Wind: 12mph
Humidity: 86%   Direction: 90°E
Pressure: 28.95"   Gusts: NA
Location:  57.454°N, 153.546°W
Report Text: PAKH 221756Z AUTO 09010KT 9SM -RA OVC024 04/02 A2895 RMK AO2 TSNO 53018 60007 T00380016 10044 20033 P0002 SLP808 $
Loading
Personal Weather Stations






























Interactive Weather Map New forecast layout! Learn more

10-Day Weather Forecast

Advertisements
Track Severe Weather on mobile